Time;durP1;ratioP1;P1;durP2;ratioP2;P2;SDS_P1;SDS_P2;PMS_P1;PMS_P2;Temp;Humidity;BMP_temperature;BMP_pressure;BME280_temperature;BME280_humidity;BME280_pressure;Samples;Min_cycle;Max_cycle;Signal;HPM_P1;HPM_P2
2022/12/11 00:01:22;;;;;;;14.52;7.95;;;;;;;-144.47;87.88;65112.91;4991461;28;20096;-67
2022/12/11 00:03:48;;;;;;;15.65;8.40;;;;;;;-144.47;87.74;65120.88;4987073;28;20553;-67
2022/12/11 00:06:15;;;;;;;20.75;8.40;;;;;;;-144.47;88.24;65140.81;4991538;28;20579;-66
2022/12/11 00:08:41;;;;;;;16.40;8.23;;;;;;;-144.47;88.09;65118.88;4993559;28;20472;-67
2022/12/11 00:11:16;;;;;;;16.23;7.50;;;;;;;-144.47;88.47;65168.72;4993651;28;20050;-67
2022/12/11 00:13:42;;;;;;;19.55;8.95;;;;;;;-144.47;88.72;65170.69;4991294;28;20034;-66
2022/12/11 00:16:10;;;;;;;18.92;8.13;;;;;;;-144.47;88.59;65164.72;4984032;28;20032;-68
2022/12/11 00:18:36;;;;;;;20.27;8.70;;;;;;;-144.47;88.66;65200.59;5006130;28;20019;-68
2022/12/11 00:21:04;;;;;;;15.45;7.45;;;;;;;-144.47;89.04;65192.63;4989897;28;20023;-68
2022/12/11 00:23:29;;;;;;;20.77;8.50;;;;;;;-144.47;89.42;65232.50;4991522;28;20018;-67
2022/12/11 00:25:55;;;;;;;21.60;8.52;;;;;;;-144.47;89.07;65180.66;4990762;28;20042;-72
2022/12/11 00:28:24;;;;;;;19.27;8.23;;;;;;;-144.47;89.30;65214.56;4989615;28;20026;-69
2022/12/11 00:30:49;;;;;;;16.17;8.18;;;;;;;-144.47;88.90;65220.53;4987449;28;20018;-68
2022/12/11 00:33:16;;;;;;;26.85;8.27;;;;;;;-144.47;88.90;65204.59;4990539;28;20033;-66
2022/12/11 00:35:44;;;;;;;18.08;7.45;;;;;;;-144.47;88.83;65230.50;4990704;28;20615;-69
2022/12/11 00:38:20;;;;;;;14.70;6.70;;;;;;;-144.47;89.68;65252.44;4990231;28;20489;-67
2022/12/11 00:40:46;;;;;;;14.90;6.53;;;;;;;-144.47;88.49;65176.69;4987593;28;20488;-68
2022/12/11 00:43:12;;;;;;;16.08;6.43;;;;;;;-144.47;87.82;65180.66;4990179;28;20083;-65
2022/12/11 00:45:39;;;;;;;20.73;7.68;;;;;;;-144.47;88.21;65216.56;4989918;28;20552;-65
2022/12/11 00:48:05;;;;;;;16.75;7.03;;;;;;;-144.47;88.36;65186.66;4990182;28;20486;-66
2022/12/11 00:50:30;;;;;;;15.80;6.90;;;;;;;-144.47;87.81;65190.63;4988537;28;20031;-67
2022/12/11 00:52:55;;;;;;;16.52;6.82;;;;;;;-144.47;86.60;65140.81;4989802;28;20084;-65
2022/12/11 00:55:21;;;;;;;15.10;7.30;;;;;;;-144.47;86.05;65118.88;4982127;28;20019;-67
2022/12/11 00:57:46;;;;;;;15.50;6.57;;;;;;;-144.47;86.74;65130.84;4984806;28;20118;-65
2022/12/11 01:00:12;;;;;;;15.10;6.63;;;;;;;-144.47;86.79;65136.81;4985771;28;20069;-68
2022/12/11 01:02:38;;;;;;;14.55;6.30;;;;;;;-144.47;86.88;65176.69;4982016;28;20030;-67
2022/12/11 01:05:04;;;;;;;18.75;7.05;;;;;;;-144.47;87.04;65168.72;4988788;28;20045;-66
2022/12/11 01:07:29;;;;;;;16.90;6.85;;;;;;;-144.47;86.60;65160.75;4988490;28;20101;-68
2022/12/11 01:12:38;;;;;;;17.73;6.60;;;;;;;-144.47;86.67;65148.78;4988318;28;20045;-67
2022/12/11 01:15:05;;;;;;;14.13;6.85;;;;;;;-144.47;86.45;65166.72;4989712;28;20022;-68
2022/12/11 01:17:30;;;;;;;11.82;6.22;;;;;;;-144.47;86.94;65168.72;4981006;28;20606;-68
2022/12/11 01:19:55;;;;;;;16.70;7.03;;;;;;;-144.47;87.81;65168.72;4985722;28;20034;-67
2022/12/11 01:22:21;;;;;;;13.48;6.70;;;;;;;-144.47;87.59;65156.75;4983522;28;20030;-67
2022/12/11 01:24:46;;;;;;;16.23;6.65;;;;;;;-144.47;87.04;65178.69;4989734;28;20041;-67
2022/12/11 01:27:12;;;;;;;23.15;7.65;;;;;;;-144.47;86.56;65120.88;5003584;28;20026;-69
2022/12/11 01:29:37;;;;;;;15.35;6.40;;;;;;;-144.47;86.84;65144.78;4989679;28;20030;-66
2022/12/11 01:32:03;;;;;;;13.80;6.55;;;;;;;-144.47;87.15;65154.75;4989390;28;20034;-66
2022/12/11 01:34:30;;;;;;;14.60;6.95;;;;;;;-144.47;86.99;65148.78;4989736;28;20030;-67
2022/12/11 01:36:55;;;;;;;19.92;8.15;;;;;;;-144.47;86.86;65148.78;4989915;28;20030;-66
2022/12/11 01:39:20;;;;;;;14.07;6.60;;;;;;;-144.47;87.16;65176.69;4989496;28;20128;-67
2022/12/11 01:41:46;;;;;;;10.65;5.70;;;;;;;-144.47;86.36;65144.78;4989149;28;20033;-66
2022/12/11 01:44:14;;;;;;;11.07;5.97;;;;;;;-144.47;86.08;65134.81;4985585;28;20046;-67
2022/12/11 01:46:40;;;;;;;21.60;7.60;;;;;;;-144.47;85.78;65112.91;4983865;28;20026;-67
2022/12/11 01:49:10;;;;;;;17.67;7.10;;;;;;;-144.47;85.63;65116.88;4986365;28;20493;-66
2022/12/11 01:51:47;;;;;;;19.98;7.13;;;;;;;-144.47;85.58;65092.97;4989185;28;20507;-66
2022/12/11 01:54:15;;;;;;;16.80;7.68;;;;;;;-144.47;85.78;65126.84;4981449;28;20069;-66
2022/12/11 01:56:43;;;;;;;14.70;7.50;;;;;;;-144.47;85.50;65100.94;4977496;28;20065;-67
2022/12/11 01:59:13;;;;;;;15.27;7.40;;;;;;;-144.47;85.43;65104.94;4984312;28;20037;-66
2022/12/11 02:01:43;;;;;;;20.15;7.57;;;;;;;-144.47;85.03;65073.03;4988283;28;20030;-66
2022/12/11 02:04:10;;;;;;;18.35;9.13;;;;;;;-144.47;84.66;65055.09;4989154;28;20030;-67
2022/12/11 02:06:37;;;;;;;19.48;8.43;;;;;;;-144.47;84.51;65085.00;4989667;28;20022;-66
2022/12/11 02:09:06;;;;;;;18.00;8.57;;;;;;;-144.47;84.85;65088.97;4985602;28;20033;-68
2022/12/11 02:11:38;;;;;;;15.80;7.30;;;;;;;-144.47;84.74;65053.09;4979767;28;20109;-68
2022/12/11 02:14:11;;;;;;;16.05;7.20;;;;;;;-144.47;85.90;65108.91;4987838;28;20043;-67
2022/12/11 02:17:01;;;;;;;17.25;7.57;;;;;;;-144.47;85.75;65112.91;4988880;28;20385;-67
2022/12/11 02:20:04;;;;;;;16.45;7.75;;;;;;;-144.47;85.48;65106.91;4989353;28;20022;-68
2022/12/11 02:22:47;;;;;;;15.32;7.40;;;;;;;-144.47;85.33;65118.88;4985166;28;20392;-66
2022/12/11 02:25:26;;;;;;;14.30;6.57;;;;;;;-144.47;84.68;65088.97;4984739;28;20039;-67
2022/12/11 02:27:56;;;;;;;;;;;;;;;-144.47;85.27;65085.00;4982536;28;20165;-69
2022/12/11 02:30:22;;;;;;;15.00;7.65;;;;;;;-144.47;84.95;65088.97;4989781;28;19913;-67
2022/12/11 02:32:55;;;;;;;14.25;6.40;;;;;;;-144.47;84.86;65049.13;4989673;28;20040;-67
2022/12/11 02:35:37;;;;;;;18.80;7.40;;;;;;;-144.47;85.06;65039.16;4988703;28;20030;-68
2022/12/11 02:38:15;;;;;;;14.55;7.50;;;;;;;-144.47;84.64;65065.06;4987347;28;20026;-68
2022/12/11 02:40:42;;;;;;;20.65;8.18;;;;;;;-144.47;85.45;65075.03;4991969;28;20037;-67
2022/12/11 02:43:12;;;;;;;21.63;7.70;;;;;;;-144.47;85.28;65053.09;4992935;28;20038;-68
2022/12/11 02:45:40;;;;;;;17.85;7.30;;;;;;;-144.47;84.55;65045.13;4992981;28;20029;-68
2022/12/11 02:48:08;;;;;;;16.75;8.85;;;;;;;-144.47;84.66;65035.16;4992724;28;20026;-67
2022/12/11 02:50:37;;;;;;;16.30;7.30;;;;;;;-144.47;84.61;65057.09;4991367;28;20026;-66
2022/12/11 02:53:05;;;;;;;17.15;7.90;;;;;;;-144.47;84.71;65017.22;4992582;28;20105;-67
2022/12/11 02:55:32;;;;;;;14.55;7.55;;;;;;;-144.47;84.96;65041.13;4984119;28;20026;-67
2022/12/11 02:58:19;;;;;;;18.98;8.77;;;;;;;-144.47;84.60;65027.19;4982457;28;20030;-68
2022/12/11 03:00:45;;;;;;;17.17;7.88;;;;;;;-144.47;85.54;65063.06;4992709;28;20057;-67
2022/12/11 03:03:11;;;;;;;15.63;7.78;;;;;;;-144.47;85.93;65083.00;4992999;28;20065;-67
2022/12/11 03:05:37;;;;;;;20.25;9.15;;;;;;;-144.47;85.55;65077.03;4992545;28;20018;-68
2022/12/11 03:08:03;;;;;;;20.42;7.30;;;;;;;-144.47;85.48;65063.06;4984733;28;20054;-67
2022/12/11 03:10:29;;;;;;;18.42;8.32;;;;;;;-144.47;85.22;65039.16;4992662;28;20057;-67
2022/12/11 03:12:56;;;;;;;16.83;7.60;;;;;;;-144.47;84.60;65071.03;4992134;28;20022;-66
2022/12/11 03:15:34;;;;;;;16.60;9.10;;;;;;;-144.47;83.46;65045.13;4992362;28;20030;-68
2022/12/11 03:18:07;;;;;;;16.20;7.72;;;;;;;-144.47;82.89;64999.28;4992738;28;20038;-66
2022/12/11 03:21:02;;;;;;;14.43;7.38;;;;;;;-144.47;80.90;64963.41;4991869;28;20030;-67
2022/12/11 03:23:38;;;;;;;17.80;7.68;;;;;;;-144.47;81.20;64943.47;4991660;28;20518;-67
2022/12/11 03:26:07;;;;;;;14.20;7.50;;;;;;;-144.47;81.38;64953.44;4993561;28;20113;-66
2022/12/11 03:28:33;;;;;;;16.70;7.43;;;;;;;-144.47;80.21;64929.50;4992025;28;20042;-67
2022/12/11 03:31:04;;;;;;;14.65;7.38;;;;;;;-144.47;79.83;64911.56;4992655;28;20104;-69
2022/12/11 03:33:38;;;;;;;18.48;8.35;;;;;;;-144.47;80.10;64885.66;4988481;28;20018;-67
2022/12/11 03:36:24;;;;;;;16.25;6.60;;;;;;;-144.47;79.56;64893.63;4990215;28;20026;-68
2022/12/11 03:38:54;;;;;;;14.20;7.03;;;;;;;-144.47;77.60;64782.03;4981514;28;20158;-68
2022/12/11 03:41:23;;;;;;;16.63;7.25;;;;;;;-144.47;77.52;64797.97;4993175;28;20034;-69
2022/12/11 03:43:52;;;;;;;13.45;7.03;;;;;;;-144.47;77.40;64750.13;4993016;28;20034;-67
2022/12/11 03:46:21;;;;;;;17.50;7.55;;;;;;;-144.47;76.66;64724.22;4992444;28;20101;-69
2022/12/11 03:48:47;;;;;;;;;;;;;;;-144.47;76.16;64722.22;4993155;28;20049;-68
2022/12/11 03:51:14;;;;;;;11.70;5.82;;;;;;;-144.47;75.89;64712.25;4990057;28;19961;-69
2022/12/11 03:53:40;;;;;;;15.90;7.90;;;;;;;-144.47;76.52;64702.28;4992099;28;20033;-67
2022/12/11 03:56:09;;;;;;;14.27;6.88;;;;;;;-144.47;76.25;64688.34;4975449;28;20030;-69
2022/12/11 03:58:35;;;;;;;12.90;6.57;;;;;;;-144.47;76.13;64682.38;4978178;28;20334;-69
2022/12/11 04:01:00;;;;;;;12.70;6.68;;;;;;;-144.47;76.50;64668.41;4989084;28;20033;-68
2022/12/11 04:03:26;;;;;;;17.63;6.93;;;;;;;-144.47;77.06;64652.47;4991624;28;20029;-70
2022/12/11 04:05:54;;;;;;;18.08;7.68;;;;;;;-144.47;77.08;64690.34;4991117;28;20054;-68
2022/12/11 04:08:20;;;;;;;15.63;7.47;;;;;;;-144.47;76.90;64668.41;4991217;28;20038;-69
2022/12/11 04:10:46;;;;;;;12.73;6.53;;;;;;;-144.47;75.42;64636.53;4991428;28;20492;-68
2022/12/11 04:13:12;;;;;;;10.70;5.97;;;;;;;-144.47;75.73;64620.59;4991297;28;20084;-68
2022/12/11 04:15:38;;;;;;;15.65;8.02;;;;;;;-144.47;76.16;64612.59;4990937;28;20030;-65
2022/12/11 04:26:20;;;;;;;18.35;8.43;;;;;;;-144.47;77.72;64696.31;4989610;28;20396;-69
2022/12/11 04:28:46;;;;;;;19.92;8.80;;;;;;;-144.47;77.95;64694.31;4991045;28;20027;-65
2022/12/11 04:31:14;;;;;;;19.33;8.48;;;;;;;-144.47;78.12;64684.34;4989653;28;20022;-68
2022/12/11 04:33:40;;;;;;;18.08;7.63;;;;;;;-144.47;77.76;64674.41;4990957;28;20030;-70
2022/12/11 04:36:06;;;;;;;18.15;7.20;;;;;;;-144.47;77.31;64650.47;4990932;28;20037;-69
2022/12/11 04:38:31;;;;;;;15.23;7.45;;;;;;;-144.47;77.86;64686.34;4990953;28;20019;-68
2022/12/11 04:41:01;;;;;;;17.30;6.85;;;;;;;-144.47;76.55;64626.56;4991543;28;20053;-69
2022/12/11 04:43:27;;;;;;;15.55;7.25;;;;;;;-144.47;76.48;64632.53;4992546;28;20065;-68
2022/12/11 04:46:03;;;;;;;13.13;6.88;;;;;;;-144.47;75.63;64590.69;4992662;28;20054;-69
2022/12/11 04:48:28;;;;;;;13.48;6.18;;;;;;;-144.47;75.30;64580.72;4991857;28;20023;-69
2022/12/11 04:50:54;;;;;;;16.65;7.28;;;;;;;-144.47;74.65;64526.91;4989905;28;20448;-69
2022/12/11 04:53:19;;;;;;;14.45;6.18;;;;;;;-144.47;74.56;64562.78;4988023;28;20110;-66
2022/12/11 04:55:44;;;;;;;14.38;6.57;;;;;;;-144.47;74.92;64536.88;4981311;28;20027;-69
2022/12/11 04:58:10;;;;;;;14.60;7.60;;;;;;;-144.47;75.43;64548.84;4979493;28;20037;-68
2022/12/11 05:00:35;;;;;;;12.63;6.57;;;;;;;-144.47;75.73;64574.75;4990866;28;20097;-68
2022/12/11 05:03:00;;;;;;;14.35;6.82;;;;;;;-144.47;76.06;64566.78;4989967;28;20114;-69
2022/12/11 05:05:26;;;;;;;12.90;6.40;;;;;;;-144.47;75.19;64538.88;4990351;28;20037;-66
2022/12/11 05:07:51;;;;;;;12.43;6.30;;;;;;;-144.47;74.71;64516.94;4990280;28;20019;-71
2022/12/11 05:10:17;;;;;;;11.98;6.20;;;;;;;-144.47;74.82;64542.84;4990637;28;20022;-71
2022/12/11 05:12:42;;;;;;;14.85;6.53;;;;;;;-144.47;75.07;64554.81;4990602;28;20041;-70
2022/12/11 05:15:08;;;;;;;11.52;6.50;;;;;;;-144.47;74.64;64526.91;4989585;28;20516;-70
2022/12/11 05:17:33;;;;;;;12.02;5.65;;;;;;;-144.47;73.55;64479.06;4989521;28;20050;-71
2022/12/11 05:19:58;;;;;;;13.15;6.38;;;;;;;-144.47;73.20;64495.03;4988317;28;20077;-68
2022/12/11 05:22:24;;;;;;;11.90;6.03;;;;;;;-144.47;73.68;64512.97;4988517;28;20038;-70
2022/12/11 05:24:49;;;;;;;12.88;5.35;;;;;;;-144.47;73.07;64483.06;4990565;28;20065;-70
2022/12/11 05:27:14;;;;;;;9.52;4.93;;;;;;;-144.47;73.42;64447.19;4989688;28;20658;-70
2022/12/11 05:29:40;;;;;;;11.15;6.00;;;;;;;-144.47;73.83;64493.03;4988936;28;20494;-70
2022/12/11 05:32:05;;;;;;;10.98;5.72;;;;;;;-144.47;73.64;64469.13;4990271;28;20031;-67
2022/12/11 05:34:31;;;;;;;11.93;5.78;;;;;;;-144.47;73.68;64443.19;4990034;28;20085;-69
2022/12/11 05:36:57;;;;;;;11.10;5.88;;;;;;;-144.47;72.12;64417.28;4989914;28;20496;-68
2022/12/11 05:39:22;;;;;;;11.77;5.80;;;;;;;-144.47;72.48;64423.28;4990786;28;20058;-69
2022/12/11 05:41:47;;;;;;;11.93;5.63;;;;;;;-144.47;72.58;64429.25;4990723;28;20060;-68
2022/12/11 05:44:13;;;;;;;12.23;5.88;;;;;;;-144.47;72.00;64385.41;4985911;28;20065;-70
2022/12/11 05:46:39;;;;;;;11.27;5.97;;;;;;;-144.47;72.63;64403.34;4986373;28;20125;-69
2022/12/11 05:49:04;;;;;;;17.00;6.90;;;;;;;-144.47;72.36;64393.38;4989086;28;20033;-67
2022/12/11 05:51:32;;;;;;;13.95;6.90;;;;;;;-144.47;72.66;64403.34;4991137;28;20026;-68
2022/12/11 05:53:58;;;;;;;20.77;6.10;;;;;;;-144.47;73.16;64431.25;4990774;28;20030;-69
2022/12/11 05:56:26;;;;;;;13.20;5.25;;;;;;;-144.47;72.11;64389.41;4979745;28;20027;-68
2022/12/11 05:58:53;;;;;;;10.70;5.82;;;;;;;-144.47;72.37;64363.50;4987962;28;20392;-69
2022/12/11 06:01:23;;;;;;;14.23;6.22;;;;;;;-144.47;72.38;64381.44;4990314;28;20034;-70
2022/12/11 06:03:48;;;;;;;12.40;6.25;;;;;;;-144.47;72.12;64395.38;4983150;28;20037;-69
2022/12/11 06:06:14;;;;;;;13.35;6.28;;;;;;;-144.47;71.99;64371.47;4988257;28;20022;-70
2022/12/11 06:08:40;;;;;;;11.27;6.05;;;;;;;-144.47;72.34;64377.44;4982600;28;20603;-71
2022/12/11 06:11:06;;;;;;;13.30;6.25;;;;;;;-144.47;74.07;64417.28;4989279;28;20085;-70
2022/12/11 06:13:32;;;;;;;13.00;5.85;;;;;;;-144.47;73.76;64387.41;4989701;28;20073;-70
2022/12/11 06:16:02;;;;;;;13.80;6.60;;;;;;;-144.47;74.24;64409.31;4993515;28;20050;-68
2022/12/11 06:18:27;;;;;;;14.80;6.47;;;;;;;-144.47;74.60;64375.44;4993248;28;20030;-71
2022/12/11 06:20:53;;;;;;;11.43;6.05;;;;;;;-144.47;75.23;64439.22;4992140;28;20030;-72
2022/12/11 06:23:18;;;;;;;13.98;6.18;;;;;;;-144.47;76.17;64425.28;4991890;28;20049;-70
2022/12/11 06:25:44;;;;;;;18.05;8.68;;;;;;;-144.47;75.67;64443.19;4992674;28;20402;-72
2022/12/11 06:28:10;;;;;;;14.43;6.47;;;;;;;-144.47;75.93;64453.16;4992451;28;20096;-71
2022/12/11 06:30:36;;;;;;;10.82;6.25;;;;;;;-144.47;76.48;64433.25;4992168;28;20029;-70
2022/12/11 06:33:01;;;;;;;12.73;5.50;;;;;;;-144.47;75.37;64457.16;4983787;28;20022;-71
2022/12/11 06:35:27;;;;;;;14.65;6.43;;;;;;;-144.47;76.03;64467.13;4993604;28;20026;-69
2022/12/11 06:37:52;;;;;;;12.60;6.07;;;;;;;-144.47;75.39;64467.13;4988524;28;20030;-67
2022/12/11 06:40:17;;;;;;;12.30;5.50;;;;;;;-144.47;74.44;64421.28;4989520;28;20026;-67
2022/12/11 06:42:43;;;;;;;14.57;5.82;;;;;;;-144.47;75.31;64399.34;4992613;28;20026;-70
2022/12/11 06:45:09;;;;;;;10.55;5.00;;;;;;;-144.47;75.11;64395.38;4992544;28;20463;-69
2022/12/11 06:47:34;;;;;;;12.35;5.93;;;;;;;-144.47;74.13;64327.63;4991616;28;20030;-72
2022/12/11 06:50:01;;;;;;;11.77;5.10;;;;;;;-144.47;74.06;64277.78;4992322;28;20109;-71
2022/12/11 06:52:27;;;;;;;12.55;5.15;;;;;;;-144.47;74.72;64309.69;4991897;28;20022;-70
2022/12/11 06:54:52;;;;;;;12.90;5.95;;;;;;;-144.47;74.53;64216.00;4992114;28;20045;-69
2022/12/11 06:57:18;;;;;;;12.32;5.97;;;;;;;-144.47;74.91;64192.09;4985324;28;20430;-69
2022/12/11 06:59:44;;;;;;;12.93;5.78;;;;;;;-144.47;74.38;64114.38;4987833;28;20030;-68
2022/12/11 07:02:16;;;;;;;10.80;5.75;;;;;;;-144.47;74.32;64088.47;4992733;28;20030;-70
2022/12/11 07:04:42;;;;;;;10.80;5.53;;;;;;;-144.47;73.94;63994.81;4991450;28;20038;-66
2022/12/11 07:07:08;;;;;;;11.07;5.35;;;;;;;-144.47;74.12;63905.16;4990672;28;20178;-68
2022/12/11 07:09:34;;;;;;;10.32;5.07;;;;;;;-144.47;74.70;63799.53;4991506;28;20106;-67
2022/12/11 07:11:59;;;;;;;19.35;6.82;;;;;;;-144.47;75.63;63753.72;4992232;28;20104;-78
2022/12/11 07:14:25;;;;;;;20.38;8.20;;;;;;;-144.47;75.04;63576.38;4990237;28;20022;-68
2022/12/11 07:16:50;;;;;;;23.90;7.43;;;;;;;-144.47;80.70;63413.00;4991711;28;20030;-70
2022/12/11 07:19:15;;;;;;;14.15;6.25;;;;;;;-144.47;79.19;63247.66;4991683;28;20058;-71
2022/12/11 07:21:41;;;;;;;23.10;7.63;;;;;;;-144.47;76.95;63046.44;4992329;28;20037;-71
2022/12/11 07:24:07;;;;;;;18.95;6.28;;;;;;;-144.47;76.65;62974.72;4991325;28;20030;-70
2022/12/11 07:26:33;;;;;;;14.00;5.53;;;;;;;-144.47;76.79;62893.06;4990523;28;20034;-73
2022/12/11 07:28:59;;;;;;;21.42;7.95;;;;;;;-144.47;77.62;62821.34;4991338;28;20116;-72
2022/12/11 07:31:27;;;;;;;16.35;6.88;;;;;;;-144.47;75.91;62598.25;4992449;28;20062;-69
2022/12/11 07:33:55;;;;;;;11.75;5.53;;;;;;;-144.47;75.89;62464.78;4989749;28;20026;-66
2022/12/11 07:36:20;;;;;;;19.90;7.57;;;;;;;-144.47;76.34;62295.50;4984529;28;20026;-70
2022/12/11 07:38:45;;;;;;;37.00;13.23;;;;;;;-144.47;74.59;62076.41;4991320;28;20029;-69
2022/12/11 07:41:13;;;;;;;16.75;7.30;;;;;;;-144.47;73.78;61875.28;4991735;28;20036;-69
2022/12/11 07:43:38;;;;;;;17.55;6.30;;;;;;;-144.47;73.82;61648.25;4992197;28;20038;-71
2022/12/11 07:46:06;;;;;;;21.17;7.72;;;;;;;-144.47;74.27;61423.25;4991784;28;20037;-71
2022/12/11 07:48:34;;;;;;;24.47;9.77;;;;;;;-144.47;75.05;61154.44;4991847;28;20041;-69
2022/12/11 07:51:14;;;;;;;23.17;8.23;;;;;;;-144.47;75.76;60943.41;4992205;28;20030;-69
2022/12/11 07:53:41;;;;;;;14.98;6.28;;;;;;;-144.47;75.76;60714.47;4977715;28;20089;-69
2022/12/11 07:56:07;;;;;;;16.42;7.55;;;;;;;-144.47;75.70;60612.94;4979740;28;20062;-67
2022/12/11 07:58:32;;;;;;;11.93;6.35;;;;;;;-144.47;76.19;60465.63;4980018;28;20434;-70
2022/12/11 08:00:58;;;;;;;13.90;6.60;;;;;;;-144.47;76.28;60310.38;4991195;28;20026;-67
2022/12/11 08:03:24;;;;;;;10.18;5.47;;;;;;;-144.47;76.00;60147.16;4992120;28;20033;-70
2022/12/11 08:05:51;;;;;;;10.43;4.97;;;;;;;-144.47;75.70;60097.38;4992873;28;20041;-71
2022/12/11 08:08:17;;;;;;;16.02;6.82;;;;;;;-144.47;75.04;59997.88;4985714;28;20389;-71
2022/12/11 08:10:43;;;;;;;11.00;5.68;;;;;;;-144.47;74.74;59944.13;4992907;28;20033;-73
2022/12/11 08:13:08;;;;;;;13.02;5.57;;;;;;;-144.47;74.83;59938.16;4993185;28;20030;-70
2022/12/11 08:15:34;;;;;;;14.13;5.90;;;;;;;-144.47;75.06;59912.28;4991569;28;20030;-71
2022/12/11 08:18:00;;;;;;;13.30;6.57;;;;;;;-144.47;73.94;59844.63;4991712;28;20019;-70
2022/12/11 08:20:25;;;;;;;14.95;6.22;;;;;;;-144.47;74.34;59878.44;4991875;28;20037;-70
2022/12/11 08:22:51;;;;;;;15.13;5.78;;;;;;;-144.47;74.90;59894.38;4991876;28;20037;-69
2022/12/11 08:25:16;;;;;;;10.60;5.05;;;;;;;-144.47;74.08;59858.53;4982855;28;20620;-68
2022/12/11 08:27:41;;;;;;;16.25;6.85;;;;;;;-144.47;74.46;59858.53;4982278;28;20094;-70
2022/12/11 08:30:08;;;;;;;13.10;6.32;;;;;;;-144.47;75.48;59802.81;4991671;28;20500;-69
2022/12/11 08:32:34;;;;;;;13.40;5.80;;;;;;;-144.47;75.21;59772.97;4989773;28;20023;-70
2022/12/11 08:34:59;;;;;;;12.30;5.20;;;;;;;-144.47;74.70;59778.94;4992278;28;20032;-69
2022/12/11 08:37:24;;;;;;;10.88;5.40;;;;;;;-144.47;74.18;59727.19;4985393;28;20026;-71
2022/12/11 08:39:50;;;;;;;13.05;5.82;;;;;;;-144.47;74.47;59727.19;4992207;28;20049;-70
2022/12/11 08:42:15;;;;;;;12.40;5.63;;;;;;;-144.47;73.76;59689.38;4993343;28;20022;-71
2022/12/11 08:44:40;;;;;;;13.18;6.10;;;;;;;-144.47;73.70;59655.53;4989888;28;20037;-70
2022/12/11 08:47:08;;;;;;;15.77;6.97;;;;;;;-144.47;73.43;59631.66;4990734;28;20555;-68
2022/12/11 08:49:34;;;;;;;13.52;6.35;;;;;;;-144.47;73.45;59599.81;4993069;28;20026;-69
2022/12/11 08:51:59;;;;;;;11.68;5.45;;;;;;;-144.47;73.54;59589.88;4990959;28;20060;-70
2022/12/11 08:54:28;;;;;;;15.40;6.55;;;;;;;-144.47;73.87;59657.53;4987049;28;20048;-72
2022/12/11 08:56:53;;;;;;;10.30;4.95;;;;;;;-144.47;72.42;59573.94;4993112;28;20030;-71
2022/12/11 08:59:19;;;;;;;10.57;5.18;;;;;;;-144.47;71.18;59562.00;4992645;28;20033;-71
2022/12/11 09:01:44;;;;;;;12.13;5.68;;;;;;;-144.47;71.12;59546.09;4996262;28;20088;-71
2022/12/11 09:04:09;;;;;;;10.65;4.93;;;;;;;-144.47;70.98;59506.28;4990700;28;20034;-72
2022/12/11 09:06:35;;;;;;;12.82;5.88;;;;;;;-144.47;71.48;59510.28;4992977;28;20029;-72
2022/12/11 09:09:01;;;;;;;10.93;5.68;;;;;;;-144.47;72.01;59548.06;4993359;28;20115;-73
2022/12/11 09:11:30;;;;;;;12.35;5.50;;;;;;;-144.47;72.96;59554.06;4995730;28;20030;-68
2022/12/11 09:13:56;;;;;;;16.55;6.88;;;;;;;-144.47;73.62;59558.03;4998252;28;20042;-70
2022/12/11 09:16:24;;;;;;;16.20;7.18;;;;;;;-144.47;74.41;59554.06;4993291;28;20054;-72
2022/12/11 09:18:50;;;;;;;11.98;5.65;;;;;;;-144.47;74.83;59514.25;4996695;28;20065;-70
2022/12/11 09:21:19;;;;;;;14.13;5.60;;;;;;;-144.47;75.52;59569.97;4993631;28;20506;-71
2022/12/11 09:23:44;;;;;;;13.77;6.28;;;;;;;-144.47;76.57;59577.94;4994892;28;20076;-71
2022/12/11 09:26:13;;;;;;;14.90;6.85;;;;;;;-144.47;76.09;59526.19;5006464;22;20130;-65
2022/12/11 09:28:40;;;;;;;20.40;6.90;;;;;;;-144.47;75.48;59506.28;4992986;28;20762;-68
2022/12/11 09:31:14;;;;;;;15.13;5.93;;;;;;;-144.47;75.66;59496.34;4993380;28;20092;-67
2022/12/11 09:33:40;;;;;;;14.07;6.05;;;;;;;-144.47;76.36;59540.13;4993356;28;20053;-64
2022/12/11 09:36:05;;;;;;;11.80;5.72;;;;;;;-144.47;76.28;59476.44;4988661;28;20399;-68
2022/12/11 09:38:32;;;;;;;12.23;5.68;;;;;;;-144.47;75.93;59478.44;4989393;28;20130;-65
2022/12/11 09:40:58;;;;;;;14.20;5.40;;;;;;;-144.47;75.46;59462.50;4991182;28;20104;-65
2022/12/11 09:43:41;;;;;;;13.05;5.60;;;;;;;-144.47;75.03;59466.50;4990942;28;20109;-66
2022/12/11 09:46:13;;;;;;;17.08;6.65;;;;;;;-144.47;74.68;59420.72;4988791;28;20037;-70
2022/12/11 09:48:43;;;;;;;16.17;6.80;;;;;;;-144.47;74.80;59438.63;4995633;28;20048;-67
2022/12/11 09:51:28;;;;;;;15.77;6.65;;;;;;;-144.47;74.37;59448.56;4991077;28;20112;-68
2022/12/11 09:53:58;;;;;;;17.58;7.15;;;;;;;-144.47;73.46;59498.31;4991378;28;20026;-65
2022/12/11 09:56:30;;;;;;;11.27;5.20;;;;;;;-144.47;73.97;59556.03;4993913;28;20034;-65
2022/12/11 09:59:18;;;;;;;14.68;7.20;;;;;;;-144.47;73.05;59516.25;4988937;28;20096;-67
2022/12/11 10:01:58;;;;;;;13.35;6.10;;;;;;;-144.47;72.75;59452.56;4993049;28;20033;-65
2022/12/11 10:04:45;;;;;;;11.73;5.22;;;;;;;-144.47;73.74;59486.38;4986917;28;20061;-70
2022/12/11 10:07:14;;;;;;;16.90;6.15;;;;;;;-144.47;73.39;59466.50;4995259;28;20034;-71
2022/12/11 10:10:12;;;;;;;13.25;6.03;;;;;;;-144.47;72.81;59396.84;4987104;28;20080;-71
2022/12/11 10:13:02;;;;;;;11.33;6.30;;;;;;;-144.47;72.43;59424.69;4972466;28;20452;-71
2022/12/11 10:16:02;;;;;;;11.35;5.65;;;;;;;-144.47;72.05;59420.72;4982203;28;20789;-71
2022/12/11 10:18:30;;;;;;;12.15;5.90;;;;;;;-144.47;72.34;59458.53;4976363;28;20574;-70
2022/12/11 10:20:55;;;;;;;12.05;5.55;;;;;;;-144.47;72.96;59454.53;4990034;28;20108;-70
2022/12/11 10:23:34;;;;;;;15.15;6.15;;;;;;;-144.47;72.75;59426.69;4991247;28;20038;-70
2022/12/11 10:26:21;;;;;;;15.57;6.53;;;;;;;-144.47;73.45;59442.59;4986447;28;20045;-70
2022/12/11 10:28:47;;;;;;;10.48;5.10;;;;;;;-144.47;72.96;59484.41;4990848;28;20060;-71
2022/12/11 10:31:26;;;;;;;15.50;6.00;;;;;;;-144.47;73.87;59486.38;4992165;28;20038;-70
2022/12/11 10:34:10;;;;;;;13.77;6.72;;;;;;;-144.47;73.10;59502.31;4989225;28;20096;-68
2022/12/11 10:36:41;;;;;;;19.30;7.70;;;;;;;-144.47;73.45;59464.50;4991974;28;20036;-66
2022/12/11 10:39:20;;;;;;;15.10;5.20;;;;;;;-144.47;73.86;59418.72;4985004;28;20034;-65
2022/12/11 10:41:48;;;;;;;13.68;5.68;;;;;;;-144.47;72.61;59434.66;4987114;28;20566;-68
2022/12/11 10:44:21;;;;;;;10.02;4.90;;;;;;;-144.47;72.97;59446.59;4997585;28;20043;-68
2022/12/11 10:46:48;;;;;;;9.88;5.00;;;;;;;-144.47;71.88;59412.75;4985350;28;20118;-66
2022/12/11 10:49:26;;;;;;;13.70;5.88;;;;;;;-144.47;71.41;59410.78;4990669;28;20101;-69
2022/12/11 10:51:56;;;;;;;10.75;5.07;;;;;;;-144.47;70.54;59402.81;4993040;28;20034;-69
2022/12/11 10:54:30;;;;;;;15.35;5.55;;;;;;;-144.47;70.85;59390.88;4986167;28;20097;-68
2022/12/11 10:56:57;;;;;;;12.10;5.45;;;;;;;-144.47;71.73;59357.03;4993638;28;20052;-67
2022/12/11 10:59:33;;;;;;;11.50;5.50;;;;;;;-144.47;71.18;59333.16;4983715;28;20026;-68
2022/12/11 11:01:59;;;;;;;11.23;4.85;;;;;;;-144.47;71.38;59339.13;4988487;28;20025;-69
2022/12/11 11:04:37;;;;;;;12.52;5.13;;;;;;;-144.47;72.34;59319.22;4988231;28;20322;-69
2022/12/11 11:07:17;;;;;;;15.18;6.55;;;;;;;-144.47;71.52;59361.00;4990689;28;20038;-67
2022/12/11 11:09:43;;;;;;;11.80;5.70;;;;;;;-144.47;70.66;59378.94;4994969;28;20133;-71
2022/12/11 11:12:25;;;;;;;12.48;6.55;;;;;;;-144.47;72.06;59372.97;4991789;28;20144;-76
2022/12/11 11:15:03;;;;;;;13.18;6.18;;;;;;;-144.47;72.49;59376.94;4989825;28;20041;-71
2022/12/11 11:17:31;;;;;;;11.13;5.10;;;;;;;-144.47;71.42;59386.88;4989260;28;20034;-71
2022/12/11 11:20:03;;;;;;;17.00;5.97;;;;;;;-144.47;69.82;59386.88;4989332;28;20076;-73
2022/12/11 11:22:31;;;;;;;13.45;5.45;;;;;;;-144.47;70.37;59392.84;4989621;28;20029;-71
2022/12/11 11:24:58;;;;;;;11.70;5.90;;;;;;;-144.47;70.98;59376.94;4993732;28;20810;-71
2022/12/11 11:27:23;;;;;;;12.90;5.47;;;;;;;-144.47;71.01;59372.97;4990687;28;20138;-75